Time;durP1;ratioP1;P1;durP2;ratioP2;P2;SDS_P1;SDS_P2;PMS_P1;PMS_P2;Temp;Humidity;BMP_temperature;BMP_pressure;BME280_temperature;BME280_humidity;BME280_pressure;Samples;Min_cycle;Max_cycle;Signal;HPM_P1;HPM_P2
2020/12/19 00:00:43;;;;;;;19.38;14.40;;;7.00;78.20;;;;;;5041993;28;20048;-61
2020/12/19 00:03:09;;;;;;;17.35;13.73;;;7.10;77.60;;;;;;5054259;28;20025;-59
2020/12/19 00:05:35;;;;;;;19.33;14.90;;;7.10;77.20;;;;;;5102891;22;20040;-79
2020/12/19 00:08:01;;;;;;;19.45;15.13;;;7.10;77.40;;;;;;5108391;28;20036;-80
2020/12/19 00:10:26;;;;;;;18.20;15.15;;;7.10;77.50;;;;;;5095259;28;20032;-79
2020/12/19 00:12:57;;;;;;;20.15;14.55;;;7.10;77.20;;;;;;5108985;28;20581;-79
2020/12/19 00:15:23;;;;;;;20.40;15.07;;;7.20;78.20;;;;;;5092147;28;20542;-80
2020/12/19 00:17:48;;;;;;;18.05;14.50;;;7.20;76.60;;;;;;5093880;28;20039;-80
2020/12/19 00:20:14;;;;;;;20.05;15.80;;;7.20;76.70;;;;;;5092358;28;20029;-80
2020/12/19 00:22:42;;;;;;;19.83;15.95;;;6.90;75.90;;;;;;5092747;28;20028;-79
2020/12/19 00:25:08;;;;;;;22.33;16.85;;;6.60;76.80;;;;;;5088224;28;20032;-79
2020/12/19 00:27:34;;;;;;;26.02;18.17;;;6.30;78.00;;;;;;5098332;28;20055;-80
2020/12/19 00:29:59;;;;;;;22.42;17.08;;;6.00;79.20;;;;;;5099178;28;20051;-80
2020/12/19 00:32:25;;;;;;;26.73;18.17;;;5.80;79.80;;;;;;5098763;28;20047;-80
2020/12/19 00:34:51;;;;;;;20.88;15.90;;;5.60;80.50;;;;;;5098297;28;20098;-78
2020/12/19 00:37:16;;;;;;;26.10;17.63;;;5.50;81.40;;;;;;5080056;23;20045;-53
2020/12/19 00:39:42;;;;;;;21.80;17.05;;;5.40;81.70;;;;;;5069177;28;20033;-56
2020/12/19 00:42:08;;;;;;;23.70;17.65;;;5.30;81.80;;;;;;5067358;28;20344;-53
2020/12/19 00:44:34;;;;;;;25.13;17.42;;;5.30;82.10;;;;;;5071838;28;20036;-58
2020/12/19 00:46:59;;;;;;;27.67;18.08;;;5.20;82.50;;;;;;5056583;28;20040;-57
2020/12/19 00:49:25;;;;;;;22.10;16.50;;;5.20;82.70;;;;;;5078579;28;20033;-59
2020/12/19 00:51:51;;;;;;;21.90;16.55;;;5.10;82.50;;;;;;5059672;28;20032;-58
2020/12/19 00:54:16;;;;;;;22.83;16.02;;;5.20;82.20;;;;;;5055462;28;20037;-54
2020/12/19 00:56:42;;;;;;;22.20;16.27;;;5.20;82.10;;;;;;5066314;28;20028;-57
2020/12/19 00:59:07;;;;;;;21.88;16.67;;;5.20;82.30;;;;;;5040706;28;20074;-57
2020/12/19 01:01:33;;;;;;;22.13;16.63;;;5.10;82.50;;;;;;5053514;28;20041;-55
2020/12/19 01:04:00;;;;;;;24.23;16.70;;;5.10;82.60;;;;;;5053517;28;20056;-55
2020/12/19 01:06:27;;;;;;;26.08;17.73;;;5.10;82.60;;;;;;5039753;28;20049;-58
2020/12/19 01:08:58;;;;;;;23.30;17.20;;;5.10;82.50;;;;;;5054402;28;20116;-57
2020/12/19 01:11:28;;;;;;;21.25;16.40;;;5.00;82.70;;;;;;5063264;28;20383;-58
2020/12/19 01:13:54;;;;;;;24.55;17.17;;;5.00;82.70;;;;;;5056337;28;20044;-55
2020/12/19 01:16:21;;;;;;;24.60;16.77;;;5.00;82.90;;;;;;5067589;28;20033;-52
2020/12/19 01:18:49;;;;;;;21.42;16.27;;;5.00;83.30;;;;;;5059710;28;20032;-54
2020/12/19 01:21:18;;;;;;;22.90;16.35;;;5.00;83.60;;;;;;5070944;28;20028;-57
2020/12/19 01:23:45;;;;;;;26.95;18.30;;;5.00;82.90;;;;;;5055059;28;20040;-60
2020/12/19 01:26:10;;;;;;;26.63;16.63;;;5.00;83.20;;;;;;5071615;28;20036;-60
2020/12/19 01:28:36;;;;;;;23.17;17.65;;;4.90;83.40;;;;;;5072387;28;20024;-56
2020/12/19 01:31:06;;;;;;;25.35;18.23;;;4.90;83.40;;;;;;5080934;28;20032;-53
2020/12/19 01:33:32;;;;;;;25.48;18.83;;;4.90;83.50;;;;;;5059450;28;20043;-55
2020/12/19 01:35:58;;;;;;;25.27;18.88;;;4.80;83.90;;;;;;5067648;28;20491;-55
2020/12/19 01:38:24;;;;;;;23.40;17.27;;;4.70;84.40;;;;;;5071923;28;20047;-54
2020/12/19 01:40:55;;;;;;;25.52;17.45;;;4.70;84.40;;;;;;5067687;28;20045;-56
2020/12/19 01:43:21;;;;;;;26.10;18.13;;;4.70;84.80;;;;;;5068153;28;20082;-57
2020/12/19 01:45:48;;;;;;;26.30;19.05;;;4.60;85.10;;;;;;5062357;28;20029;-57
2020/12/19 01:48:22;;;;;;;26.90;18.25;;;4.70;85.20;;;;;;5059719;28;20125;-54
2020/12/19 01:50:49;;;;;;;27.33;18.03;;;4.70;85.30;;;;;;5070218;28;20055;-57
2020/12/19 01:53:16;;;;;;;26.58;17.55;;;4.60;85.30;;;;;;5047566;28;20821;-55
2020/12/19 01:55:43;;;;;;;25.60;17.55;;;4.70;85.40;;;;;;5055340;28;20491;-58
2020/12/19 01:58:09;;;;;;;24.02;17.15;;;4.70;85.20;;;;;;5068257;28;20641;-55
2020/12/19 02:00:41;;;;;;;22.52;16.90;;;4.80;85.30;;;;;;5048480;28;20108;-59
2020/12/19 02:03:07;;;;;;;28.35;18.77;;;4.80;85.20;;;;;;5052721;28;20040;-59
2020/12/19 02:05:40;;;;;;;25.48;17.58;;;4.80;85.30;;;;;;5053390;28;20111;-62
2020/12/19 02:08:05;;;;;;;26.20;16.02;;;4.90;85.20;;;;;;5067756;28;20059;-65
2020/12/19 02:10:35;;;;;;;24.23;17.10;;;4.90;85.20;;;;;;5053661;28;20355;-65
2020/12/19 02:13:02;;;;;;;27.50;18.13;;;4.80;85.50;;;;;;5071257;28;20111;-60
2020/12/19 02:15:40;;;;;;;25.48;16.67;;;4.80;85.70;;;;;;5070558;28;20029;-66
2020/12/19 02:18:05;;;;;;;25.08;17.48;;;4.80;86.00;;;;;;5071212;28;20047;-57
2020/12/19 02:20:31;;;;;;;24.33;17.45;;;4.70;85.90;;;;;;5072400;28;20032;-52
2020/12/19 02:22:57;;;;;;;23.85;16.92;;;4.70;85.90;;;;;;5070658;28;20506;-54
2020/12/19 02:25:23;;;;;;;22.85;16.75;;;4.80;85.70;;;;;;5071504;28;20471;-52
2020/12/19 02:27:50;;;;;;;23.58;15.80;;;4.70;85.80;;;;;;5052516;28;20047;-52
2020/12/19 02:30:16;;;;;;;26.90;17.63;;;4.80;85.70;;;;;;5070585;28;20070;-59
2020/12/19 02:32:44;;;;;;;23.88;16.80;;;4.70;85.60;;;;;;5052848;28;20036;-54
2020/12/19 02:35:13;;;;;;;22.55;16.58;;;4.80;85.40;;;;;;5052350;28;20043;-57
2020/12/19 02:37:39;;;;;;;25.52;17.52;;;4.70;85.80;;;;;;5070743;28;20115;-52
2020/12/19 02:40:04;;;;;;;22.23;15.95;;;4.60;86.20;;;;;;5071328;28;20113;-57
2020/12/19 02:42:30;;;;;;;24.55;17.35;;;4.60;86.30;;;;;;5070571;28;20097;-58
2020/12/19 02:44:55;;;;;;;23.85;16.58;;;4.60;86.00;;;;;;5071436;28;20036;-57
2020/12/19 02:47:21;;;;;;;24.02;15.77;;;4.60;86.10;;;;;;5071571;28;20044;-56
2020/12/19 02:49:46;;;;;;;24.52;16.90;;;4.50;86.30;;;;;;5087936;28;20545;-56
2020/12/19 02:52:12;;;;;;;23.38;15.68;;;4.50;86.60;;;;;;5071217;28;20040;-56
2020/12/19 02:54:37;;;;;;;22.50;16.35;;;4.50;86.60;;;;;;5071061;28;20510;-55
2020/12/19 02:57:03;;;;;;;23.30;15.90;;;4.50;86.70;;;;;;5071147;28;20127;-56
2020/12/19 02:59:29;;;;;;;23.73;16.23;;;4.40;86.70;;;;;;5070895;28;20104;-56
2020/12/19 03:01:54;;;;;;;23.48;15.98;;;4.40;87.00;;;;;;5070621;28;20076;-55
2020/12/19 03:04:20;;;;;;;23.17;14.85;;;4.40;86.80;;;;;;5071303;28;20044;-55
2020/12/19 03:06:45;;;;;;;20.52;15.00;;;4.60;86.00;;;;;;5053184;28;20519;-54
2020/12/19 03:09:11;;;;;;;23.17;15.63;;;4.60;86.00;;;;;;5071563;28;20060;-57
2020/12/19 03:11:39;;;;;;;20.40;15.30;;;4.50;86.30;;;;;;5053314;28;20069;-62
2020/12/19 03:14:05;;;;;;;23.02;16.25;;;4.40;86.40;;;;;;5036487;28;20041;-56
2020/12/19 03:16:31;;;;;;;20.48;14.50;;;4.50;86.50;;;;;;5069123;28;20071;-58
2020/12/19 03:18:56;;;;;;;20.65;14.73;;;4.40;86.80;;;;;;5070975;28;20044;-53
2020/12/19 03:21:22;;;;;;;22.42;16.48;;;4.40;86.60;;;;;;5068621;28;20147;-56
2020/12/19 03:23:47;;;;;;;21.45;14.60;;;4.40;86.40;;;;;;5061425;28;20105;-55
2020/12/19 03:26:18;;;;;;;20.58;14.65;;;4.50;86.00;;;;;;5057394;28;20033;-57
2020/12/19 03:28:44;;;;;;;20.70;14.98;;;4.50;86.40;;;;;;5056921;28;20055;-58
2020/12/19 03:31:10;;;;;;;19.90;14.02;;;4.50;86.30;;;;;;5070154;28;20533;-52
2020/12/19 03:33:35;;;;;;;24.10;15.82;;;4.50;86.20;;;;;;5071086;28;20737;-53
2020/12/19 03:36:01;;;;;;;20.70;14.50;;;4.50;85.90;;;;;;5067768;28;20045;-55
2020/12/19 03:38:27;;;;;;;19.13;13.75;;;4.50;85.90;;;;;;5070150;28;20086;-58
2020/12/19 03:40:52;;;;;;;21.17;14.43;;;4.60;85.70;;;;;;5078518;28;20032;-60
2020/12/19 03:43:18;;;;;;;19.15;13.52;;;4.60;85.50;;;;;;5070645;28;20071;-55
2020/12/19 03:45:43;;;;;;;18.40;13.32;;;4.60;85.40;;;;;;5070725;28;20090;-57
2020/12/19 03:48:09;;;;;;;20.08;14.40;;;4.50;85.50;;;;;;5078482;28;20016;-52
2020/12/19 03:50:34;;;;;;;16.13;12.80;;;4.60;85.50;;;;;;5090157;28;20119;-56
2020/12/19 03:53:00;;;;;;;19.83;14.60;;;4.50;86.20;;;;;;5083623;28;20386;-58
2020/12/19 03:55:29;;;;;;;18.98;14.40;;;4.50;86.00;;;;;;5076527;28;20040;-59
2020/12/19 03:57:55;;;;;;;18.67;13.90;;;4.50;85.90;;;;;;5090561;28;20044;-56
2020/12/19 04:00:21;;;;;;;17.27;13.38;;;4.60;85.40;;;;;;5086970;28;20041;-55
2020/12/19 04:02:46;;;;;;;20.45;14.02;;;4.60;85.30;;;;;;5074542;28;20147;-56
2020/12/19 04:05:12;;;;;;;18.15;12.95;;;4.40;85.70;;;;;;5076205;28;20032;-59
2020/12/19 04:07:39;;;;;;;17.95;14.55;;;4.40;86.10;;;;;;5092509;28;20093;-57
2020/12/19 04:10:06;;;;;;;18.90;13.07;;;4.40;85.90;;;;;;5084280;28;20036;-57
2020/12/19 04:12:49;;;;;;;18.45;13.40;;;4.50;85.70;;;;;;5062161;28;20033;-58
2020/12/19 04:15:22;;;;;;;21.08;13.80;;;4.50;85.60;;;;;;5031904;28;20143;-58
2020/12/19 04:17:51;;;;;;;18.95;13.25;;;4.50;85.50;;;;;;5092055;28;20081;-58
2020/12/19 04:20:17;;;;;;;19.20;13.70;;;4.50;85.50;;;;;;5088182;28;20077;-56
2020/12/19 04:22:43;;;;;;;20.38;13.55;;;4.40;85.90;;;;;;5072300;28;20036;-54
2020/12/19 04:25:09;;;;;;;22.27;13.85;;;4.40;86.10;;;;;;5072955;28;20025;-57
2020/12/19 04:27:36;;;;;;;16.80;12.48;;;4.40;85.70;;;;;;5092437;28;20054;-57
2020/12/19 04:30:03;;;;;;;16.98;12.60;;;4.40;85.80;;;;;;5074066;28;20032;-58
2020/12/19 04:32:29;;;;;;;16.95;12.73;;;4.50;85.50;;;;;;5082803;28;20037;-56
2020/12/19 04:34:54;;;;;;;18.25;12.65;;;4.50;85.20;;;;;;5073149;28;20120;-57
2020/12/19 04:37:20;;;;;;;17.80;13.20;;;4.50;85.30;;;;;;5090971;28;20051;-55
2020/12/19 04:39:45;;;;;;;17.33;12.43;;;4.50;85.10;;;;;;5093266;28;20032;-57
2020/12/19 04:42:13;;;;;;;18.20;12.65;;;4.50;84.90;;;;;;5056592;28;20090;-54
2020/12/19 04:44:39;;;;;;;17.00;12.45;;;4.50;85.10;;;;;;5072960;28;20032;-54
2020/12/19 04:47:06;;;;;;;17.83;12.13;;;4.60;85.00;;;;;;5090813;28;20058;-57
2020/12/19 04:49:33;;;;;;;15.00;12.25;;;4.60;84.50;;;;;;5093643;28;20038;-57
2020/12/19 04:51:59;;;;;;;17.92;13.65;;;4.60;84.70;;;;;;5093047;28;20024;-58
2020/12/19 04:54:24;;;;;;;16.63;12.55;;;4.40;85.30;;;;;;5093381;28;20497;-56
2020/12/19 04:56:55;;;;;;;18.58;12.80;;;4.40;85.40;;;;;;5078976;28;20044;-56
2020/12/19 04:59:21;;;;;;;17.45;12.35;;;4.30;85.90;;;;;;5073351;28;20128;-58
2020/12/19 05:01:46;;;;;;;18.27;12.48;;;4.30;85.90;;;;;;5086282;28;20080;-53
2020/12/19 05:04:14;;;;;;;17.98;12.32;;;4.30;85.70;;;;;;5093238;28;20070;-55
2020/12/19 05:06:41;;;;;;;17.75;12.00;;;4.20;86.30;;;;;;5062803;28;20434;-56
2020/12/19 05:09:09;;;;;;;17.15;11.75;;;4.30;86.10;;;;;;5073187;28;20478;-56
2020/12/19 05:11:36;;;;;;;17.52;12.10;;;4.30;85.70;;;;;;5082717;28;20024;-56
2020/12/19 05:14:07;;;;;;;15.70;12.13;;;4.30;86.00;;;;;;5093046;28;20043;-59
2020/12/19 05:16:33;;;;;;;17.17;11.63;;;4.40;85.30;;;;;;5092492;28;20040;-57
2020/12/19 05:19:08;;;;;;;14.10;11.00;;;4.40;85.70;;;;;;5093377;28;20089;-58
2020/12/19 05:21:43;;;;;;;;;;;4.40;85.50;;;;;;5083546;28;20528;-57
2020/12/19 05:24:10;;;;;;;13.95;11.40;;;4.50;85.50;;;;;;5072834;28;19912;-56
2020/12/19 05:26:36;;;;;;;16.33;11.85;;;4.50;85.50;;;;;;5081305;28;20565;-60
2020/12/19 05:29:04;;;;;;;15.50;11.07;;;4.50;85.50;;;;;;5093604;28;20413;-54
2020/12/19 05:31:33;;;;;;;14.23;11.02;;;4.60;85.30;;;;;;5093018;28;20023;-54
2020/12/19 05:33:59;;;;;;;13.02;9.80;;;4.60;85.30;;;;;;5093665;28;20115;-53
2020/12/19 05:36:28;;;;;;;14.75;11.57;;;4.60;84.80;;;;;;5092838;28;20064;-55
2020/12/19 05:39:01;;;;;;;15.15;10.85;;;4.70;84.70;;;;;;5093867;28;20502;-57
2020/12/19 05:41:27;;;;;;;14.88;11.68;;;4.70;84.70;;;;;;5092960;28;20123;-54
2020/12/19 05:43:53;;;;;;;15.20;10.95;;;4.70;84.60;;;;;;5092709;28;20032;-58
2020/12/19 05:46:41;;;;;;;14.77;11.40;;;4.60;84.90;;;;;;5087827;28;20467;-55
2020/12/19 05:49:11;;;;;;;15.45;10.63;;;4.70;84.40;;;;;;5088514;28;20061;-59
2020/12/19 05:51:39;;;;;;;14.88;11.63;;;4.60;84.70;;;;;;5074320;28;20114;-55
2020/12/19 05:54:14;;;;;;;15.80;11.32;;;4.60;84.20;;;;;;5092482;28;20086;-60
2020/12/19 05:56:48;;;;;;;14.55;11.02;;;4.40;85.10;;;;;;5067763;28;20041;-55
2020/12/19 05:59:18;;;;;;;17.48;12.40;;;4.20;85.70;;;;;;5072863;28;20036;-52
2020/12/19 06:01:45;;;;;;;16.90;11.85;;;3.90;87.20;;;;;;5072369;28;20039;-55
2020/12/19 06:04:12;;;;;;;18.40;12.00;;;3.80;87.50;;;;;;5072384;28;20057;-58
2020/12/19 06:06:39;;;;;;;14.85;11.55;;;3.80;87.80;;;;;;5079299;23;20037;-61
2020/12/19 06:09:06;;;;;;;18.95;12.20;;;3.80;87.50;;;;;;5054376;28;20082;-55
2020/12/19 06:11:40;;;;;;;17.35;12.35;;;3.80;87.20;;;;;;5057501;28;20041;-51
2020/12/19 06:14:09;;;;;;;17.70;12.00;;;3.80;87.10;;;;;;5074304;28;20123;-53
2020/12/19 06:16:39;;;;;;;14.32;11.45;;;3.90;87.20;;;;;;5053642;28;20286;-55
2020/12/19 06:19:10;;;;;;;15.80;11.18;;;4.00;86.80;;;;;;5053555;28;20041;-55
2020/12/19 06:21:36;;;;;;;15.32;11.25;;;4.00;86.40;;;;;;5053468;28;20100;-56
2020/12/19 06:24:02;;;;;;;14.73;11.27;;;4.10;86.10;;;;;;5052782;28;20033;-55
2020/12/19 06:26:37;;;;;;;14.48;12.02;;;4.10;85.70;;;;;;5052731;28;20498;-58
2020/12/19 06:29:04;;;;;;;16.05;11.02;;;4.30;85.30;;;;;;5053774;28;20059;-51
2020/12/19 06:31:29;;;;;;;13.18;11.25;;;4.30;85.10;;;;;;5051565;28;20029;-55
2020/12/19 06:33:55;;;;;;;14.30;11.32;;;4.30;84.50;;;;;;5052946;28;20082;-52
2020/12/19 06:36:29;;;;;;;16.00;12.07;;;4.40;84.40;;;;;;5052621;28;20131;-52
2020/12/19 06:38:57;;;;;;;16.05;12.00;;;4.30;84.70;;;;;;5032481;28;20037;-54
2020/12/19 06:41:42;;;;;;;16.00;11.10;;;4.20;84.90;;;;;;5045920;28;20081;-54
2020/12/19 06:44:28;;;;;;;15.05;12.20;;;4.20;85.10;;;;;;5034354;28;20044;-54
2020/12/19 06:47:00;;;;;;;;;;;4.20;85.40;;;;;;5046877;28;20033;-56
2020/12/19 06:49:37;;;;;;;16.70;12.38;;;4.20;85.30;;;;;;5063332;28;19913;-64
2020/12/19 06:52:02;;;;;;;17.60;12.35;;;4.20;85.20;;;;;;5042166;28;20037;-58
2020/12/19 06:54:49;;;;;;;17.27;13.25;;;4.20;85.50;;;;;;5064438;28;20084;-61
2020/12/19 06:57:26;;;;;;;17.08;13.73;;;4.20;85.70;;;;;;5067355;28;20052;-56
2020/12/19 06:59:53;;;;;;;19.88;13.85;;;4.20;85.50;;;;;;5065953;28;20092;-59
2020/12/19 07:02:21;;;;;;;20.15;14.57;;;4.20;85.20;;;;;;5065634;28;20041;-60
2020/12/19 07:04:52;;;;;;;17.55;14.55;;;4.20;85.20;;;;;;5059870;28;20057;-56
2020/12/19 07:07:27;;;;;;;22.20;15.00;;;4.20;85.30;;;;;;5039777;28;20037;-55
2020/12/19 07:10:01;;;;;;;19.88;14.82;;;4.20;85.20;;;;;;5054784;28;20032;-58
2020/12/19 07:12:37;;;;;;;20.27;15.23;;;4.30;85.20;;;;;;5049745;28;20036;-58
2020/12/19 07:15:24;;;;;;;22.70;16.45;;;4.20;85.00;;;;;;5053286;28;20028;-53
2020/12/19 07:17:50;;;;;;;21.08;15.75;;;4.30;85.20;;;;;;5053134;28;20037;-55
2020/12/19 07:20:22;;;;;;;22.55;16.33;;;4.30;85.10;;;;;;5035197;28;20036;-53
2020/12/19 07:22:50;;;;;;;20.10;15.18;;;4.20;85.30;;;;;;5054584;28;20190;-57
2020/12/19 07:25:16;;;;;;;21.83;15.77;;;4.20;85.30;;;;;;5058599;28;20041;-54
2020/12/19 07:27:41;;;;;;;20.17;15.00;;;4.20;85.30;;;;;;5061053;28;20079;-57
2020/12/19 07:30:07;;;;;;;18.27;13.90;;;4.00;86.50;;;;;;5054155;28;20021;-58
2020/12/19 07:32:32;;;;;;;20.48;14.38;;;4.10;86.10;;;;;;5055352;28;20037;-53
2020/12/19 07:34:59;;;;;;;16.73;13.13;;;4.20;86.10;;;;;;5052824;28;20029;-52
2020/12/19 07:37:28;;;;;;;16.45;12.52;;;4.20;85.90;;;;;;5056386;28;20096;-56
2020/12/19 07:40:06;;;;;;;17.13;13.55;;;4.20;85.90;;;;;;5056313;28;20033;-57
2020/12/19 07:42:31;;;;;;;17.00;12.30;;;4.30;85.60;;;;;;5057632;28;20474;-57
2020/12/19 07:44:57;;;;;;;16.38;12.15;;;4.40;84.80;;;;;;5057503;28;20067;-58
2020/12/19 07:47:23;;;;;;;15.38;11.85;;;4.40;85.10;;;;;;5054103;28;20186;-56
2020/12/19 07:49:52;;;;;;;16.60;12.00;;;4.50;85.00;;;;;;5055863;28;20299;-54
2020/12/19 07:52:20;;;;;;;15.68;12.32;;;4.60;84.40;;;;;;5055347;28;20094;-55
2020/12/19 07:55:05;;;;;;;16.40;10.98;;;4.60;84.20;;;;;;5049363;28;20032;-60
2020/12/19 07:57:32;;;;;;;14.80;11.27;;;4.70;83.70;;;;;;5035529;28;20038;-59
2020/12/19 08:00:00;;;;;;;13.55;10.88;;;4.70;83.30;;;;;;5052081;28;20037;-62
2020/12/19 08:02:26;;;;;;;13.75;11.38;;;4.70;83.50;;;;;;5055551;28;20041;-61
2020/12/19 08:05:00;;;;;;;13.32;10.73;;;4.70;83.40;;;;;;5053873;28;20068;-59
2020/12/19 08:07:31;;;;;;;18.10;11.68;;;4.80;83.50;;;;;;5053859;28;20036;-61
2020/12/19 08:10:04;;;;;;;13.80;10.35;;;4.90;83.10;;;;;;5053979;28;20037;-59
2020/12/19 08:12:31;;;;;;;15.13;10.90;;;4.90;82.90;;;;;;5055065;28;20033;-62
2020/12/19 08:15:02;;;;;;;15.63;11.05;;;4.90;82.70;;;;;;5054342;28;20542;-59
2020/12/19 08:17:28;;;;;;;14.45;11.00;;;4.90;82.60;;;;;;5053391;28;20041;-59
2020/12/19 08:19:58;;;;;;;16.52;11.48;;;4.90;82.80;;;;;;5053234;28;20047;-58
2020/12/19 08:22:24;;;;;;;14.45;11.35;;;5.00;82.40;;;;;;5054815;28;20545;-62
2020/12/19 08:24:50;;;;;;;16.08;11.68;;;5.00;82.20;;;;;;5055802;28;20045;-61
2020/12/19 08:27:33;;;;;;;28.45;18.70;;;5.10;82.20;;;;;;5055496;28;20538;-62
2020/12/19 08:30:13;;;;;;;18.15;13.82;;;5.10;81.80;;;;;;5055170;28;20041;-63
2020/12/19 08:32:57;;;;;;;14.88;11.88;;;5.20;81.60;;;;;;5054539;28;20044;-61
2020/12/19 08:35:28;;;;;;;15.85;12.05;;;5.30;81.40;;;;;;5036101;28;20061;-62
2020/12/19 08:38:10;;;;;;;15.23;11.88;;;5.30;81.20;;;;;;5053083;28;20041;-58
2020/12/19 08:40:42;;;;;;;14.45;11.32;;;5.30;81.20;;;;;;5053939;28;20037;-57
2020/12/19 08:43:09;;;;;;;13.93;11.15;;;5.20;81.60;;;;;;5052862;28;20087;-58
2020/12/19 08:45:37;;;;;;;14.02;11.18;;;5.20;81.50;;;;;;5053170;28;20039;-61
2020/12/19 08:48:24;;;;;;;14.32;11.38;;;5.30;81.50;;;;;;5052839;28;20056;-58
2020/12/19 08:50:51;;;;;;;13.73;10.38;;;5.30;81.00;;;;;;5054065;28;20365;-61
2020/12/19 08:53:22;;;;;;;13.75;11.05;;;5.30;81.00;;;;;;5053255;28;20032;-62
2020/12/19 08:55:49;;;;;;;16.02;11.65;;;5.40;80.80;;;;;;5053620;28;20128;-63
2020/12/19 08:58:27;;;;;;;13.50;10.80;;;5.40;80.80;;;;;;5052418;28;20052;-63
2020/12/19 09:00:55;;;;;;;14.70;12.13;;;5.40;80.80;;;;;;5052921;28;20029;-62
2020/12/19 09:03:31;;;;;;;25.40;18.65;;;5.60;80.10;;;;;;5053460;28;20033;-62
2020/12/19 09:06:01;;;;;;;16.85;14.13;;;5.70;80.20;;;;;;5052822;28;20032;-62
2020/12/19 09:08:41;;;;;;;15.45;11.25;;;5.70;79.90;;;;;;5053301;28;20079;-64
2020/12/19 09:11:08;;;;;;;18.83;11.68;;;5.70;79.80;;;;;;5053240;28;20173;-61
2020/12/19 09:13:35;;;;;;;13.98;11.23;;;5.70;80.10;;;;;;5035340;28;20078;-61
2020/12/19 09:16:06;;;;;;;14.93;9.77;;;5.80;80.00;;;;;;5053868;28;20071;-61
2020/12/19 09:18:33;;;;;;;11.95;10.15;;;5.80;79.60;;;;;;5056048;28;20112;-62
2020/12/19 09:21:00;;;;;;;14.82;10.32;;;5.90;79.40;;;;;;5052860;28;20068;-62
2020/12/19 09:23:27;;;;;;;16.02;10.13;;;5.90;79.40;;;;;;5056049;28;20468;-60
2020/12/19 09:25:58;;;;;;;12.70;9.73;;;6.00;80.00;;;;;;5055232;28;20073;-61
2020/12/19 09:28:24;;;;;;;14.77;9.88;;;6.20;80.70;;;;;;5053254;28;20041;-58
2020/12/19 09:30:51;;;;;;;14.10;9.95;;;6.30;79.60;;;;;;5053365;28;20107;-63
2020/12/19 09:33:17;;;;;;;13.13;10.23;;;6.40;78.90;;;;;;5053283;28;20024;-61
2020/12/19 09:35:43;;;;;;;12.75;9.65;;;6.50;78.70;;;;;;5052593;28;20032;-62
2020/12/19 09:38:09;;;;;;;13.25;10.10;;;6.60;78.90;;;;;;5052662;28;20036;-60
2020/12/19 09:40:35;;;;;;;13.02;10.38;;;6.70;78.00;;;;;;5052899;28;20037;-61
2020/12/19 09:43:01;;;;;;;15.15;11.65;;;6.60;77.30;;;;;;5053091;28;20094;-62
2020/12/19 09:45:27;;;;;;;15.93;12.05;;;6.50;77.40;;;;;;5052511;28;20069;-61
2020/12/19 09:47:56;;;;;;;13.05;10.27;;;6.50;77.50;;;;;;5057237;28;20174;-61
2020/12/19 09:50:23;;;;;;;12.35;9.80;;;6.50;77.70;;;;;;5072530;28;20445;-62
2020/12/19 09:52:49;;;;;;;12.57;10.75;;;6.50;77.60;;;;;;5052919;28;20032;-60
2020/12/19 09:55:15;;;;;;;12.40;10.15;;;6.60;77.80;;;;;;5054706;28;20411;-60
2020/12/19 09:57:40;;;;;;;14.18;10.93;;;6.60;77.20;;;;;;5053824;28;20041;-60
2020/12/19 10:00:07;;;;;;;17.42;12.73;;;6.60;77.40;;;;;;5053328;28;20040;-60
2020/12/19 10:02:33;;;;;;;13.18;11.43;;;6.50;77.60;;;;;;5051606;28;20048;-59
2020/12/19 10:04:59;;;;;;;16.95;11.95;;;6.70;77.00;;;;;;5052444;28;20506;-59
2020/12/19 10:07:24;;;;;;;14.43;11.70;;;6.70;76.80;;;;;;5052405;28;20498;-60
2020/12/19 10:09:50;;;;;;;14.52;11.63;;;6.70;76.90;;;;;;5052318;28;20486;-61
2020/12/19 10:12:16;;;;;;;14.05;10.48;;;6.90;76.50;;;;;;5052347;28;20043;-61
2020/12/19 10:14:41;;;;;;;13.93;10.43;;;6.90;76.50;;;;;;5051999;28;20032;-61
2020/12/19 10:17:07;;;;;;;16.83;10.88;;;6.80;76.80;;;;;;5051505;28;20376;-62
2020/12/19 10:19:33;;;;;;;12.57;10.85;;;6.80;77.00;;;;;;5052013;28;20028;-59
2020/12/19 10:21:58;;;;;;;12.77;9.68;;;6.80;76.80;;;;;;5051400;28;20033;-62
2020/12/19 10:24:25;;;;;;;13.70;9.73;;;6.80;76.90;;;;;;5051987;28;20025;-61
2020/12/19 10:26:50;;;;;;;12.90;10.02;;;6.90;76.90;;;;;;5051876;28;20049;-61
2020/12/19 10:29:16;;;;;;;29.50;19.17;;;7.00;76.90;;;;;;5052123;28;20059;-60
2020/12/19 10:31:42;;;;;;;17.42;12.38;;;7.10;76.70;;;;;;5051830;28;20086;-61
2020/12/19 10:34:07;;;;;;;12.15;10.30;;;7.30;76.00;;;;;;5052090;28;20538;-62
2020/12/19 10:36:33;;;;;;;10.90;9.70;;;7.30;75.60;;;;;;5051655;28;20510;-61
2020/12/19 10:38:59;;;;;;;10.68;8.95;;;7.40;75.40;;;;;;5052060;28;20544;-61
2020/12/19 10:41:25;;;;;;;12.98;9.85;;;7.50;75.40;;;;;;5051838;28;20088;-60
2020/12/19 10:43:51;;;;;;;11.27;9.30;;;7.50;75.00;;;;;;5051759;28;20065;-57
2020/12/19 10:46:24;;;;;;;10.77;8.73;;;7.60;75.10;;;;;;5051511;28;20088;-60
2020/12/19 10:48:49;;;;;;;10.15;8.45;;;7.60;75.10;;;;;;5065099;28;20029;-61
2020/12/19 10:51:15;;;;;;;10.27;9.20;;;7.60;75.10;;;;;;5069757;28;20028;-61
2020/12/19 10:53:42;;;;;;;10.23;8.27;;;7.60;75.00;;;;;;5051539;28;20025;-62
2020/12/19 10:56:07;;;;;;;9.68;7.57;;;7.50;75.70;;;;;;5051980;28;20021;-61
2020/12/19 10:58:33;;;;;;;11.32;8.27;;;7.50;75.60;;;;;;5051370;28;20025;-62
2020/12/19 11:00:59;;;;;;;10.65;8.05;;;7.50;75.70;;;;;;5050545;28;20481;-60
2020/12/19 11:03:24;;;;;;;10.00;7.78;;;7.60;75.10;;;;;;5051189;28;20027;-61
2020/12/19 11:05:50;;;;;;;9.43;8.20;;;7.70;75.10;;;;;;5051247;28;20043;-62
2020/12/19 11:08:15;;;;;;;10.90;7.35;;;7.70;74.80;;;;;;5051292;28;20203;-61
2020/12/19 11:10:43;;;;;;;9.07;7.75;;;7.80;74.40;;;;;;5054186;28;20055;-61
2020/12/19 11:13:08;;;;;;;8.40;6.65;;;7.90;74.40;;;;;;5055527;28;20029;-60
2020/12/19 11:15:34;;;;;;;9.63;7.70;;;8.00;74.00;;;;;;5055147;28;20055;-61
2020/12/19 11:18:00;;;;;;;8.30;6.88;;;8.00;74.10;;;;;;5055716;28;20094;-61
2020/12/19 11:20:25;;;;;;;9.25;6.88;;;8.00;74.10;;;;;;5060529;28;20491;-61
2020/12/19 11:22:51;;;;;;;8.75;7.20;;;8.00;74.10;;;;;;5056901;28;20124;-61
2020/12/19 11:25:17;;;;;;;8.30;7.07;;;8.00;74.20;;;;;;5054134;28;20337;-60
2020/12/19 11:27:43;;;;;;;11.18;7.63;;;8.10;74.00;;;;;;5054000;28;20037;-61
2020/12/19 11:30:09;;;;;;;9.25;8.00;;;8.10;74.30;;;;;;5055279;28;20040;-62
2020/12/19 11:32:35;;;;;;;9.35;8.35;;;8.10;74.10;;;;;;5054122;28;20411;-60
2020/12/19 11:35:01;;;;;;;10.05;7.63;;;8.30;74.00;;;;;;5055171;28;20025;-61
2020/12/19 11:37:26;;;;;;;9.98;8.00;;;8.40;73.60;;;;;;5055203;28;20048;-61
2020/12/19 11:39:53;;;;;;;9.27;7.40;;;8.50;73.10;;;;;;5054953;28;20037;-61
2020/12/19 11:42:22;;;;;;;8.57;7.53;;;8.40;73.50;;;;;;5036631;28;20095;-62
2020/12/19 11:44:47;;;;;;;8.93;6.78;;;8.50;73.70;;;;;;5054356;28;20553;-62
2020/12/19 11:47:13;;;;;;;11.88;8.18;;;8.60;73.10;;;;;;5054703;28;20104;-62
2020/12/19 11:49:38;;;;;;;9.32;7.00;;;8.60;73.30;;;;;;5074687;28;20040;-61
2020/12/19 11:52:08;;;;;;;9.40;6.40;;;8.60;73.00;;;;;;5073575;28;20024;-62
2020/12/19 11:54:37;;;;;;;10.57;7.22;;;8.60;72.90;;;;;;5055077;28;20083;-61
2020/12/19 11:57:03;;;;;;;13.70;9.52;;;8.60;73.20;;;;;;5055128;28;20041;-62
2020/12/19 11:59:29;;;;;;;8.32;6.88;;;8.70;73.10;;;;;;5046939;28;20098;-62
2020/12/19 12:01:55;;;;;;;6.60;5.32;;;8.90;72.40;;;;;;5042764;28;20388;-60
2020/12/19 12:04:21;;;;;;;7.82;5.72;;;8.90;72.10;;;;;;5043235;28;20504;-61
2020/12/19 12:06:48;;;;;;;6.90;6.00;;;8.80;72.30;;;;;;5044466;28;20041;-61
2020/12/19 12:09:13;;;;;;;8.13;5.43;;;8.90;71.90;;;;;;5041164;28;20055;-61
2020/12/19 12:11:39;;;;;;;7.57;5.22;;;8.90;71.90;;;;;;5044364;28;20116;-59
2020/12/19 12:14:04;;;;;;;7.95;5.40;;;9.00;71.70;;;;;;5044989;28;20052;-62
2020/12/19 12:16:30;;;;;;;8.10;5.60;;;9.10;71.80;;;;;;5043507;28;20488;-60
2020/12/19 12:18:57;;;;;;;6.13;5.20;;;9.10;70.80;;;;;;5048326;28;20040;-60
2020/12/19 12:21:26;;;;;;;7.68;4.88;;;9.20;70.40;;;;;;5040875;28;20116;-61
2020/12/19 12:23:51;;;;;;;5.88;5.10;;;9.20;70.70;;;;;;5043240;28;20076;-61
2020/12/19 12:26:22;;;;;;;7.35;5.90;;;9.20;70.50;;;;;;5043125;28;20037;-60
2020/12/19 12:28:47;;;;;;;6.30;5.30;;;9.20;70.90;;;;;;5044245;28;20419;-61
2020/12/19 12:31:18;;;;;;;13.07;9.23;;;9.30;70.80;;;;;;5043611;28;20033;-59
2020/12/19 12:33:44;;;;;;;14.18;8.98;;;9.30;70.90;;;;;;5043822;28;20497;-61
2020/12/19 12:36:09;;;;;;;8.02;6.45;;;9.40;71.00;;;;;;5038622;28;20053;-59
2020/12/19 12:38:35;;;;;;;8.38;6.82;;;9.40;70.50;;;;;;5053293;28;20057;-62
2020/12/19 12:41:01;;;;;;;6.55;5.68;;;9.50;70.30;;;;;;5052946;28;20048;-62
2020/12/19 12:43:26;;;;;;;6.40;5.32;;;9.50;70.30;;;;;;5045323;28;20500;-64